createdAt,value
2022-12-14T00:00:41.606Z,27.80
2022-12-14T00:02:43.819Z,24.70
2022-12-14T00:04:45.934Z,23.58
2022-12-14T00:06:47.918Z,24.90
2022-12-14T00:08:52.764Z,24.70
2022-12-14T00:10:55.105Z,24.48
2022-12-14T00:12:57.905Z,26.48
2022-12-14T00:15:00.146Z,24.23
2022-12-14T00:17:02.143Z,27.58
2022-12-14T00:19:05.828Z,21.15
2022-12-14T00:21:11.322Z,22.75
2022-12-14T00:23:13.605Z,27.38
2022-12-14T00:25:15.770Z,29.85
2022-12-14T00:27:17.714Z,25.00
2022-12-14T00:29:19.796Z,24.85
2022-12-14T00:31:23.600Z,24.83
2022-12-14T00:33:25.535Z,23.15
2022-12-14T00:35:27.537Z,23.80
2022-12-14T00:37:29.605Z,25.45
2022-12-14T00:39:31.578Z,30.02
2022-12-14T00:41:33.568Z,26.38
2022-12-14T00:43:35.965Z,24.88
2022-12-14T00:45:38.078Z,27.92
2022-12-14T00:47:40.930Z,27.67
2022-12-14T00:49:43.005Z,27.58
2022-12-14T00:51:45.109Z,24.48
2022-12-14T00:53:47.144Z,23.98
2022-12-14T00:55:49.782Z,24.20
2022-12-14T00:57:51.985Z,25.20
2022-12-14T00:59:54.004Z,23.88
2022-12-14T01:01:56.234Z,28.30
2022-12-14T01:04:08.785Z,24.35
2022-12-14T01:06:16.505Z,22.27
2022-12-14T01:08:18.518Z,27.73
2022-12-14T01:10:20.658Z,25.60
2022-12-14T01:12:22.596Z,26.17
2022-12-14T01:14:24.585Z,25.55
2022-12-14T01:16:26.698Z,25.05
2022-12-14T01:18:28.687Z,27.80
2022-12-14T01:20:30.977Z,23.52
2022-12-14T01:22:33.065Z,23.85
2022-12-14T01:24:35.065Z,31.70
2022-12-14T01:26:39.359Z,24.88
2022-12-14T01:28:41.825Z,27.48
2022-12-14T01:30:43.866Z,26.23
2022-12-14T01:32:46.360Z,19.92
2022-12-14T01:34:49.298Z,28.92
2022-12-14T01:36:51.238Z,25.90
2022-12-14T01:38:58.425Z,24.13
2022-12-14T01:41:00.955Z,23.15
2022-12-14T01:43:02.983Z,27.17
2022-12-14T01:45:06.825Z,28.77
2022-12-14T01:47:18.965Z,24.73
2022-12-14T01:49:30.578Z,22.85
2022-12-14T01:51:34.958Z,24.20
2022-12-14T01:53:37.038Z,25.17
2022-12-14T01:55:45.192Z,23.38
2022-12-14T01:58:04.021Z,21.52
2022-12-14T02:00:10.799Z,23.27
2022-12-14T02:02:15.101Z,24.80
2022-12-14T02:04:19.198Z,20.83
2022-12-14T02:06:27.165Z,21.92
2022-12-14T02:08:29.805Z,22.08
2022-12-14T02:10:32.718Z,24.05
2022-12-14T02:12:41.737Z,22.98
2022-12-14T02:14:44.586Z,23.60
2022-12-14T02:16:47.365Z,20.17
2022-12-14T02:18:49.342Z,18.42
2022-12-14T02:21:03.918Z,22.85
2022-12-14T02:23:17.878Z,19.60
2022-12-14T02:25:26.297Z,18.25
2022-12-14T02:27:50.636Z,21.40
2022-12-14T02:30:04.571Z,18.60
2022-12-14T02:32:21.818Z,18.13
2022-12-14T02:34:38.717Z,19.17
2022-12-14T02:37:00.525Z,16.42
2022-12-14T02:39:23.228Z,20.35
2022-12-14T02:41:27.721Z,16.85
2022-12-14T02:43:48.457Z,21.58
2022-12-14T02:45:50.786Z,18.45
2022-12-14T02:50:08.889Z,21.73
2022-12-14T02:52:29.387Z,17.00
2022-12-14T02:54:49.285Z,18.15
2022-12-14T02:56:57.388Z,18.07
2022-12-14T02:59:00.561Z,14.27
2022-12-14T03:01:19.974Z,17.25
2022-12-14T03:03:22.175Z,16.25
2022-12-14T03:05:23.953Z,19.73
2022-12-14T03:07:48.842Z,18.23
2022-12-14T03:09:52.645Z,16.33
2022-12-14T03:12:17.399Z,19.23
2022-12-14T03:14:30.756Z,20.50
2022-12-14T03:16:46.710Z,19.25
2022-12-14T03:19:14.006Z,17.33
2022-12-14T03:21:25.155Z,15.85
2022-12-14T03:23:33.796Z,19.88
2022-12-14T03:26:05.078Z,16.10
2022-12-14T03:28:25.864Z,17.05
2022-12-14T03:30:58.317Z,19.88
2022-12-14T03:32:58.793Z,15.60
2022-12-14T03:35:32.738Z,15.25
2022-12-14T03:37:38.303Z,16.75
2022-12-14T03:39:43.560Z,19.23
2022-12-14T03:42:10.391Z,18.60
2022-12-14T03:44:23.938Z,17.35
2022-12-14T03:46:38.543Z,15.77
2022-12-14T03:48:49.466Z,16.42
2022-12-14T03:51:27.398Z,16.70
2022-12-14T03:53:38.640Z,16.65
2022-12-14T03:56:05.068Z,17.48
2022-12-14T03:58:27.590Z,16.67
2022-12-14T04:00:32.300Z,14.27
2022-12-14T04:02:57.220Z,17.65
2022-12-14T04:05:23.593Z,14.63
2022-12-14T04:07:38.353Z,15.05
2022-12-14T04:10:03.699Z,18.00
2022-12-14T04:12:35.557Z,15.85
2022-12-14T04:15:08.970Z,16.13
2022-12-14T04:17:41.204Z,19.02
2022-12-14T04:19:50.812Z,17.15
2022-12-14T04:22:08.612Z,12.95
2022-12-14T04:24:31.811Z,16.55
2022-12-14T04:26:43.172Z,14.63
2022-12-14T04:29:11.291Z,19.73
2022-12-14T04:31:18.636Z,14.05
2022-12-14T04:33:39.346Z,15.40
2022-12-14T04:35:42.606Z,17.17
2022-12-14T04:37:50.912Z,15.25
2022-12-14T04:40:00.992Z,16.92
2022-12-14T04:42:06.361Z,20.83
2022-12-14T04:44:19.529Z,17.60
2022-12-14T04:46:26.833Z,18.23
2022-12-14T04:48:38.761Z,17.88
2022-12-14T04:50:47.921Z,19.30
2022-12-14T04:52:59.674Z,21.25
2022-12-14T04:55:06.831Z,22.25
2022-12-14T04:57:36.658Z,19.63
2022-12-14T04:59:38.394Z,20.73
2022-12-14T05:01:58.670Z,19.88
2022-12-14T05:04:32.911Z,20.48
2022-12-14T05:07:02.485Z,24.75
2022-12-14T05:09:28.767Z,22.38
2022-12-14T05:11:54.393Z,25.27
2022-12-14T05:14:00.842Z,23.90
2022-12-14T05:16:05.007Z,24.98
2022-12-14T05:18:09.116Z,28.85
2022-12-14T05:20:19.403Z,27.77
2022-12-14T05:22:22.424Z,24.67
2022-12-14T05:24:24.200Z,25.17
2022-12-14T05:26:25.872Z,26.55
2022-12-14T05:28:27.493Z,26.58
2022-12-14T05:30:29.320Z,28.38
2022-12-14T05:32:31.346Z,25.60
2022-12-14T05:34:33.147Z,31.17
2022-12-14T05:36:35.607Z,30.33
2022-12-14T05:38:37.255Z,27.95
2022-12-14T05:40:39.935Z,28.55
2022-12-14T05:42:45.425Z,26.27
2022-12-14T05:44:48.864Z,27.75
2022-12-14T05:46:50.534Z,28.42
2022-12-14T05:48:52.145Z,25.55
2022-12-14T05:50:53.833Z,25.48
2022-12-14T05:52:55.943Z,26.98
2022-12-14T05:55:02.416Z,29.20
2022-12-14T05:57:07.658Z,24.40
2022-12-14T05:59:10.777Z,28.70
2022-12-14T06:01:19.075Z,25.35
2022-12-14T06:03:21.448Z,28.55
2022-12-14T06:05:23.171Z,31.90
2022-12-14T06:07:27.932Z,30.50
2022-12-14T06:09:30.325Z,28.27
2022-12-14T06:11:32.055Z,30.95
2022-12-14T06:13:33.710Z,31.30
2022-12-14T06:15:40.554Z,30.52
2022-12-14T06:17:47.142Z,28.20
2022-12-14T06:19:50.023Z,31.70
2022-12-14T06:21:52.395Z,29.40
2022-12-14T06:23:55.077Z,28.38
2022-12-14T06:25:56.945Z,30.92
2022-12-14T06:27:58.629Z,29.48
2022-12-14T06:30:00.308Z,27.73
2022-12-14T06:32:01.986Z,29.08
2022-12-14T06:34:03.866Z,27.88
2022-12-14T06:36:05.841Z,34.25
2022-12-14T06:38:07.530Z,35.53
2022-12-14T06:40:09.912Z,30.35
2022-12-14T06:42:11.816Z,31.48
2022-12-14T06:44:14.471Z,27.85
2022-12-14T06:46:18.462Z,32.80
2022-12-14T06:48:20.264Z,27.45
2022-12-14T06:50:22.022Z,26.88
2022-12-14T06:52:26.879Z,25.35
2022-12-14T06:54:28.981Z,24.83
2022-12-14T06:56:31.319Z,29.50
2022-12-14T06:58:34.375Z,28.77
2022-12-14T07:00:36.421Z,27.35
2022-12-14T07:02:39.507Z,27.45
2022-12-14T07:04:41.930Z,24.83
2022-12-14T07:06:43.650Z,29.77
2022-12-14T07:08:45.790Z,26.02
2022-12-14T07:10:47.473Z,23.42
2022-12-14T07:12:49.111Z,25.55
2022-12-14T07:14:50.941Z,23.83
2022-12-14T07:17:00.243Z,25.08
2022-12-14T07:19:01.975Z,22.50
2022-12-14T07:21:18.387Z,26.90
2022-12-14T07:23:23.428Z,22.23
2022-12-14T07:25:29.335Z,26.30
2022-12-14T07:27:31.112Z,23.20
2022-12-14T07:29:35.017Z,24.42
2022-12-14T07:31:37.045Z,21.13
2022-12-14T07:33:38.732Z,20.80
2022-12-14T07:35:40.481Z,25.50
2022-12-14T07:37:42.312Z,26.85
2022-12-14T07:39:51.020Z,24.75
2022-12-14T07:41:54.789Z,24.33
2022-12-14T07:43:57.713Z,22.02
2022-12-14T07:46:04.539Z,24.73
2022-12-14T07:48:07.422Z,24.25
2022-12-14T07:50:09.469Z,24.35
2022-12-14T07:52:11.092Z,20.90
2022-12-14T07:54:13.235Z,26.63
2022-12-14T07:56:18.212Z,21.30
2022-12-14T07:58:19.987Z,23.25
2022-12-14T08:00:22.115Z,21.45
2022-12-14T08:02:24.427Z,21.00
2022-12-14T08:04:26.274Z,21.23
2022-12-14T08:06:29.970Z,20.77
2022-12-14T08:08:31.770Z,23.67
2022-12-14T08:10:40.064Z,22.92
2022-12-14T08:12:42.153Z,18.95
2022-12-14T08:14:45.125Z,22.17
2022-12-14T08:16:52.921Z,21.13
2022-12-14T08:18:55.974Z,22.88
2022-12-14T08:20:57.623Z,23.08
2022-12-14T08:22:59.598Z,23.50
2022-12-14T08:25:01.321Z,18.30
2022-12-14T08:27:03.125Z,25.67
2022-12-14T08:29:05.643Z,23.40
2022-12-14T08:31:21.981Z,23.52
2022-12-14T08:33:24.369Z,21.92
2022-12-14T08:35:26.134Z,22.15
2022-12-14T08:37:27.817Z,25.90
2022-12-14T08:39:29.478Z,20.92
2022-12-14T08:41:31.694Z,25.58
2022-12-14T08:43:33.837Z,21.00
2022-12-14T08:45:36.119Z,27.67
2022-12-14T08:47:37.861Z,22.42
2022-12-14T08:49:39.735Z,21.35
2022-12-14T08:51:42.087Z,22.30
2022-12-14T08:53:44.328Z,25.08
2022-12-14T08:55:46.427Z,23.42
2022-12-14T08:57:48.552Z,22.58
2022-12-14T09:00:01.453Z,21.75
2022-12-14T09:02:04.250Z,26.52
2022-12-14T09:04:07.870Z,25.67
2022-12-14T09:06:13.005Z,23.77
2022-12-14T09:08:14.707Z,21.60
2022-12-14T09:10:16.638Z,22.63
2022-12-14T09:12:20.998Z,20.75
2022-12-14T09:14:22.736Z,24.00
2022-12-14T09:16:27.973Z,23.65
2022-12-14T09:18:34.542Z,22.20
2022-12-14T09:20:36.587Z,21.30
2022-12-14T09:22:38.434Z,21.90
2022-12-14T09:24:40.133Z,20.70
2022-12-14T09:26:41.827Z,23.65
2022-12-14T09:28:47.499Z,20.70
2022-12-14T09:30:54.644Z,24.02
2022-12-14T09:32:56.392Z,28.75
2022-12-14T09:34:59.976Z,22.63
2022-12-14T09:37:04.764Z,28.05
2022-12-14T09:39:06.487Z,20.88
2022-12-14T09:41:44.438Z,19.52
2022-12-14T09:44:35.816Z,19.23
2022-12-14T09:46:40.134Z,21.20
2022-12-14T09:48:42.605Z,24.25
2022-12-14T09:50:50.050Z,18.65
2022-12-14T09:52:53.398Z,21.08
2022-12-14T09:54:57.675Z,18.30
2022-12-14T09:57:11.815Z,19.67
2022-12-14T09:59:17.796Z,21.20
2022-12-14T10:01:22.709Z,20.73
2022-12-14T10:03:46.274Z,20.90
2022-12-14T10:06:06.274Z,20.08
2022-12-14T10:08:34.770Z,17.38
2022-12-14T10:10:45.484Z,18.15
2022-12-14T10:13:02.518Z,21.63
2022-12-14T10:15:33.665Z,18.33
2022-12-14T10:17:56.897Z,18.67
2022-12-14T10:20:25.370Z,20.63
2022-12-14T10:22:35.996Z,18.33
2022-12-14T10:24:43.288Z,18.75
2022-12-14T10:26:50.681Z,17.88
2022-12-14T10:29:32.491Z,19.60
2022-12-14T10:31:45.698Z,17.13
2022-12-14T10:33:47.582Z,18.35
2022-12-14T10:35:55.037Z,20.48
2022-12-14T10:38:29.684Z,21.02
2022-12-14T10:40:35.287Z,24.15
2022-12-14T10:42:49.216Z,18.40
2022-12-14T10:45:41.581Z,16.65
2022-12-14T10:47:52.779Z,20.63
2022-12-14T10:50:13.660Z,21.05
2022-12-14T10:54:34.302Z,18.60
2022-12-14T10:56:39.306Z,20.92
2022-12-14T10:58:41.073Z,17.40
2022-12-14T11:00:43.918Z,19.17
2022-12-14T11:02:49.997Z,17.35
2022-12-14T11:04:57.555Z,19.35
2022-12-14T11:07:10.825Z,22.98
2022-12-14T11:09:24.263Z,20.02
2022-12-14T11:11:27.281Z,20.60
2022-12-14T11:13:41.523Z,21.58
2022-12-14T11:15:51.441Z,20.45
2022-12-14T11:18:15.979Z,17.73
2022-12-14T11:20:27.907Z,18.90
2022-12-14T11:22:42.398Z,20.90
2022-12-14T11:24:47.595Z,18.05
2022-12-14T11:26:50.233Z,22.30
2022-12-14T11:28:54.720Z,19.00
2022-12-14T11:31:21.646Z,18.65
2022-12-14T11:33:26.941Z,16.10
2022-12-14T11:35:28.605Z,21.02
2022-12-14T11:37:32.508Z,19.35
2022-12-14T11:39:34.871Z,18.48
2022-12-14T11:41:39.961Z,22.27
2022-12-14T11:43:41.772Z,17.85
2022-12-14T11:45:51.358Z,18.73
2022-12-14T11:48:14.508Z,17.35
2022-12-14T11:50:24.613Z,16.92
2022-12-14T11:52:37.252Z,17.15
2022-12-14T11:54:42.514Z,17.15
2022-12-14T11:56:55.745Z,19.42
2022-12-14T11:58:57.458Z,16.75
2022-12-14T12:01:24.435Z,17.55
2022-12-14T12:03:34.770Z,14.93
2022-12-14T12:05:41.847Z,19.23
2022-12-14T12:07:49.392Z,19.05
2022-12-14T12:09:51.451Z,19.60
2022-12-14T12:11:53.259Z,19.73
2022-12-14T12:14:01.820Z,20.55
2022-12-14T12:16:21.073Z,20.25
2022-12-14T12:18:33.231Z,18.63
2022-12-14T12:20:41.669Z,19.80
2022-12-14T12:22:46.790Z,15.90
2022-12-14T12:25:24.370Z,18.98
2022-12-14T12:27:19.208Z,17.98
2022-12-14T12:29:29.803Z,19.63
2022-12-14T12:31:43.628Z,20.90
2022-12-14T12:33:54.682Z,18.85
2022-12-14T12:36:01.730Z,22.52
2022-12-14T12:38:52.077Z,20.15
2022-12-14T12:41:20.994Z,18.73
2022-12-14T12:43:34.034Z,19.85
2022-12-14T12:45:47.686Z,19.15
2022-12-14T12:48:01.845Z,19.55
2022-12-14T12:50:13.414Z,18.17
2022-12-14T12:52:34.291Z,20.45
2022-12-14T12:56:59.201Z,17.92
2022-12-14T12:59:02.374Z,20.10
2022-12-14T13:01:31.217Z,20.35
2022-12-14T13:03:45.337Z,20.80
2022-12-14T13:05:49.064Z,18.80
2022-12-14T13:08:06.992Z,22.63
2022-12-14T13:10:27.534Z,21.30
2022-12-14T13:12:39.392Z,23.60
2022-12-14T13:14:49.737Z,24.65
2022-12-14T13:21:36.190Z,18.65
2022-12-14T13:23:44.683Z,20.75
2022-12-14T13:26:55.661Z,25.90
2022-12-14T13:29:10.908Z,22.10
2022-12-14T13:31:27.957Z,26.23
2022-12-14T13:33:35.815Z,25.35
2022-12-14T13:35:46.174Z,25.52
2022-12-14T13:38:31.176Z,20.00
2022-12-14T13:40:50.208Z,24.02
2022-12-14T13:43:17.086Z,25.88
2022-12-14T13:45:21.181Z,29.90
2022-12-14T13:47:30.743Z,24.25
2022-12-14T13:49:33.503Z,22.38
2022-12-14T13:51:39.954Z,22.45
2022-12-14T13:53:50.476Z,24.10
2022-12-14T13:56:19.366Z,26.20
2022-12-14T13:58:48.585Z,24.70
2022-12-14T14:00:53.679Z,25.77
2022-12-14T14:02:56.062Z,27.42
2022-12-14T14:05:16.232Z,27.52
2022-12-14T14:07:23.858Z,26.10
2022-12-14T14:09:34.457Z,26.23
2022-12-14T14:11:37.393Z,23.27
2022-12-14T14:13:39.747Z,27.13
2022-12-14T14:16:27.548Z,19.05
2022-12-14T14:18:31.428Z,23.13
2022-12-14T14:20:33.405Z,20.27
2022-12-14T14:22:35.133Z,22.67
2022-12-14T14:24:54.995Z,22.55
2022-12-14T14:27:18.637Z,23.63
2022-12-14T14:29:29.022Z,20.38
2022-12-14T14:31:49.585Z,20.40
2022-12-14T14:33:55.915Z,21.48
2022-12-14T14:36:24.985Z,19.58
2022-12-14T14:38:31.282Z,21.65
2022-12-14T14:41:13.881Z,21.15
2022-12-14T14:43:06.114Z,22.00
2022-12-14T14:45:21.187Z,22.40
2022-12-14T14:47:33.599Z,22.10
2022-12-14T14:49:40.804Z,24.17
2022-12-14T14:51:42.495Z,19.83
2022-12-14T14:53:44.743Z,20.42
2022-12-14T14:55:58.387Z,20.60
2022-12-14T14:58:09.215Z,16.60
2022-12-14T15:02:41.670Z,22.85
2022-12-14T15:04:56.872Z,24.50
2022-12-14T15:07:04.381Z,18.73
2022-12-14T15:09:24.929Z,20.95
2022-12-14T15:11:31.603Z,19.65
2022-12-14T15:13:48.287Z,22.10
2022-12-14T15:15:56.626Z,19.65
2022-12-14T15:18:34.157Z,28.45
2022-12-14T15:20:35.793Z,23.20
2022-12-14T15:22:43.796Z,26.30
2022-12-14T15:24:48.820Z,23.88
2022-12-14T15:26:50.697Z,25.30
2022-12-14T15:28:56.446Z,25.63
2022-12-14T15:31:24.229Z,23.67
2022-12-14T15:33:48.296Z,27.08
2022-12-14T15:35:51.330Z,20.00
2022-12-14T15:38:01.423Z,26.48
2022-12-14T15:40:10.803Z,23.83
2022-12-14T15:42:16.991Z,24.50
2022-12-14T15:44:22.718Z,23.77
2022-12-14T15:46:26.218Z,21.83
2022-12-14T15:48:31.124Z,25.80
2022-12-14T15:50:32.866Z,24.67
2022-12-14T15:52:35.179Z,20.83
2022-12-14T15:54:37.967Z,23.70
2022-12-14T15:56:44.055Z,22.40
2022-12-14T15:58:46.295Z,21.85
2022-12-14T16:00:52.026Z,22.55
2022-12-14T16:02:55.234Z,24.73
2022-12-14T16:05:00.569Z,22.13
2022-12-14T16:07:18.119Z,22.27
2022-12-14T16:09:30.938Z,21.95
2022-12-14T16:11:54.663Z,22.35
2022-12-14T16:14:03.554Z,23.98
2022-12-14T16:16:11.340Z,16.65
2022-12-14T16:18:17.349Z,17.80
2022-12-14T16:20:34.903Z,17.98
2022-12-14T16:22:43.386Z,17.60
2022-12-14T16:25:10.036Z,15.43
2022-12-14T16:27:19.392Z,19.30
2022-12-14T16:29:26.686Z,16.48
2022-12-14T16:31:29.043Z,18.40
2022-12-14T16:33:37.740Z,18.27
2022-12-14T16:35:39.710Z,18.77
2022-12-14T16:37:49.515Z,20.23
2022-12-14T16:39:56.508Z,19.48
2022-12-14T16:42:09.984Z,17.98
2022-12-14T16:44:37.279Z,21.00
2022-12-14T16:47:15.474Z,20.70
2022-12-14T16:49:30.984Z,16.27
2022-12-14T16:53:59.785Z,23.25
2022-12-14T16:56:16.393Z,19.05
2022-12-14T16:58:18.525Z,21.83
2022-12-14T17:00:31.681Z,18.63
2022-12-14T17:02:46.780Z,17.48
2022-12-14T17:04:48.848Z,20.25
2022-12-14T17:06:54.112Z,17.77
2022-12-14T17:08:56.045Z,19.45
2022-12-14T17:10:58.246Z,22.40
2022-12-14T17:13:06.271Z,18.92
2022-12-14T17:15:14.121Z,16.38
2022-12-14T17:17:20.185Z,19.25
2022-12-14T17:19:32.324Z,20.70
2022-12-14T17:21:34.329Z,18.23
2022-12-14T17:23:40.110Z,17.60
2022-12-14T17:25:46.299Z,16.38
2022-12-14T17:27:49.880Z,15.73
2022-12-14T17:29:51.745Z,17.80
2022-12-14T17:31:57.074Z,16.67
2022-12-14T17:33:58.828Z,21.17
2022-12-14T17:36:00.562Z,15.40
2022-12-14T17:38:02.284Z,18.60
2022-12-14T17:40:05.042Z,17.50
2022-12-14T17:42:06.828Z,16.35
2022-12-14T17:44:16.300Z,14.98
2022-12-14T17:46:18.055Z,17.30
2022-12-14T17:48:20.361Z,18.70
2022-12-14T17:50:23.007Z,16.88
2022-12-14T17:52:30.251Z,19.42
2022-12-14T17:54:32.465Z,16.63
2022-12-14T17:56:34.192Z,15.77
2022-12-14T17:58:35.981Z,18.73
2022-12-14T18:00:56.939Z,16.45
2022-12-14T18:02:58.936Z,19.80
2022-12-14T18:05:00.721Z,19.63
2022-12-14T18:07:03.167Z,14.00
2022-12-14T18:09:07.236Z,16.13
2022-12-14T18:11:19.092Z,12.05
2022-12-14T18:13:20.828Z,19.52
2022-12-14T18:15:38.272Z,14.23
2022-12-14T18:17:44.947Z,16.77
2022-12-14T18:19:51.088Z,12.60
2022-12-14T18:21:53.408Z,14.73
2022-12-14T18:23:56.560Z,12.40
2022-12-14T18:25:59.903Z,13.18
2022-12-14T18:28:04.880Z,15.23
2022-12-14T18:30:07.243Z,14.82
2022-12-14T18:32:13.905Z,12.73
2022-12-14T18:34:15.547Z,12.05
2022-12-14T18:36:19.929Z,12.98
2022-12-14T18:38:22.141Z,10.43
2022-12-14T18:40:29.515Z,18.98
2022-12-14T18:42:31.438Z,14.80
2022-12-14T18:44:33.246Z,12.98
2022-12-14T18:46:35.134Z,12.00
2022-12-14T18:48:37.253Z,16.55
2022-12-14T18:50:42.876Z,15.10
2022-12-14T18:52:45.936Z,16.70
2022-12-14T18:54:47.596Z,11.60
2022-12-14T18:56:49.968Z,16.27
2022-12-14T18:58:52.085Z,13.13
2022-12-14T19:00:56.907Z,18.20
2022-12-14T19:02:59.748Z,11.88
2022-12-14T19:05:01.872Z,21.80
2022-12-14T19:07:03.674Z,14.73
2022-12-14T19:09:05.577Z,16.95
2022-12-14T19:11:37.051Z,13.82
2022-12-14T19:13:39.029Z,14.18
2022-12-14T19:15:40.745Z,18.90
2022-12-14T19:17:42.674Z,9.40
2022-12-14T19:19:44.783Z,12.77
2022-12-14T19:21:48.291Z,14.80
2022-12-14T19:23:50.472Z,12.60
2022-12-14T19:25:52.462Z,13.15
2022-12-14T19:28:26.130Z,18.17
2022-12-14T19:30:22.727Z,10.73
2022-12-14T19:32:25.109Z,11.73
2022-12-14T19:34:26.989Z,7.25
2022-12-14T19:36:28.839Z,18.40
2022-12-14T19:38:30.709Z,11.45
2022-12-14T19:40:32.384Z,14.00
2022-12-14T19:42:34.356Z,18.02
2022-12-14T19:44:36.294Z,8.52
2022-12-14T19:46:38.206Z,10.85
2022-12-14T19:48:40.631Z,12.65
2022-12-14T19:50:42.610Z,7.60
2022-12-14T19:52:44.279Z,12.77
2022-12-14T19:54:47.568Z,8.75
2022-12-14T19:56:52.279Z,7.72
2022-12-14T19:58:57.770Z,10.00
2022-12-14T20:00:59.581Z,12.30
2022-12-14T20:03:01.366Z,11.43
2022-12-14T20:05:04.380Z,17.23
2022-12-14T20:07:09.754Z,13.60
2022-12-14T20:09:14.920Z,11.73
2022-12-14T20:11:20.543Z,8.65
2022-12-14T20:13:29.913Z,10.48
2022-12-14T20:15:34.911Z,11.35
2022-12-14T20:17:36.561Z,7.68
2022-12-14T20:19:39.260Z,6.75
2022-12-14T20:21:42.289Z,7.63
2022-12-14T20:23:45.057Z,7.10
2022-12-14T20:25:50.443Z,12.77
2022-12-14T20:27:52.779Z,9.98
2022-12-14T20:29:54.546Z,9.10
2022-12-14T20:31:56.618Z,13.65
2022-12-14T20:34:01.874Z,12.88
2022-12-14T20:36:05.504Z,13.88
2022-12-14T20:38:07.165Z,9.48
2022-12-14T20:40:09.735Z,9.75
2022-12-14T20:42:11.384Z,10.95
2022-12-14T20:44:16.089Z,10.85
2022-12-14T20:46:30.090Z,12.68
2022-12-14T20:48:33.237Z,9.40
2022-12-14T20:50:40.724Z,11.07
2022-12-14T20:52:46.318Z,11.60
2022-12-14T20:54:51.840Z,12.18
2022-12-14T20:56:53.632Z,11.63
2022-12-14T20:58:55.384Z,11.55
2022-12-14T21:00:57.357Z,5.68
2022-12-14T21:02:59.554Z,10.05
2022-12-14T21:05:01.556Z,8.82
2022-12-14T21:07:03.249Z,12.43
2022-12-14T21:09:05.726Z,6.40
2022-12-14T21:11:30.863Z,12.40
2022-12-14T21:13:35.287Z,6.00
2022-12-14T21:15:37.031Z,6.00
2022-12-14T21:17:40.842Z,11.05
2022-12-14T21:19:47.905Z,8.45
2022-12-14T21:21:53.800Z,11.52
2022-12-14T21:23:56.029Z,9.82
2022-12-14T21:26:05.071Z,10.40
2022-12-14T21:28:06.763Z,9.32
2022-12-14T21:30:11.084Z,12.50
2022-12-14T21:32:13.815Z,8.05
2022-12-14T21:34:19.707Z,13.60
2022-12-14T21:36:21.635Z,11.93
2022-12-14T21:38:23.522Z,9.07
2022-12-14T21:40:43.819Z,8.20
2022-12-14T21:42:49.062Z,7.38
2022-12-14T21:44:52.221Z,8.52
2022-12-14T21:46:53.829Z,16.27
2022-12-14T21:48:55.503Z,6.00
2022-12-14T21:50:57.270Z,11.07
2022-12-14T21:52:59.014Z,10.07
2022-12-14T21:55:00.878Z,7.57
2022-12-14T21:57:21.615Z,11.20
2022-12-14T21:59:32.412Z,9.38
2022-12-14T22:03:36.173Z,15.02
2022-12-14T22:05:39.284Z,6.18
2022-12-14T22:07:40.938Z,9.13
2022-12-14T22:09:43.471Z,11.68
2022-12-14T22:11:51.976Z,7.45
2022-12-14T22:13:53.698Z,8.00
2022-12-14T22:15:55.487Z,11.15
2022-12-14T22:17:57.170Z,8.82
2022-12-14T22:19:59.506Z,7.40
2022-12-14T22:22:01.291Z,6.88
2022-12-14T22:24:03.500Z,9.45
2022-12-14T22:26:06.068Z,10.88
2022-12-14T22:28:07.721Z,9.65
2022-12-14T22:30:09.946Z,8.98
2022-12-14T22:32:12.515Z,12.43
2022-12-14T22:34:17.458Z,9.18
2022-12-14T22:36:19.160Z,6.40
2022-12-14T22:38:20.812Z,10.00
2022-12-14T22:40:22.457Z,11.15
2022-12-14T22:42:24.281Z,6.20
2022-12-14T22:44:25.990Z,10.15
2022-12-14T22:46:28.312Z,7.68
2022-12-14T22:48:37.297Z,10.27
2022-12-14T22:50:39.148Z,4.85
2022-12-14T22:52:40.877Z,11.90
2022-12-14T22:54:42.639Z,5.18
2022-12-14T22:56:48.854Z,8.27
2022-12-14T22:58:57.412Z,10.82
2022-12-14T23:00:59.917Z,10.43
2022-12-14T23:03:02.195Z,8.70
2022-12-14T23:05:07.097Z,8.73
2022-12-14T23:07:09.110Z,10.88
2022-12-14T23:09:29.608Z,5.82
2022-12-14T23:11:51.300Z,9.43
2022-12-14T23:14:17.358Z,8.70
2022-12-14T23:16:41.742Z,14.50
2022-12-14T23:19:15.287Z,12.98
2022-12-14T23:21:35.746Z,8.13
2022-12-14T23:23:58.085Z,7.60
2022-12-14T23:26:23.691Z,9.15
2022-12-14T23:28:44.751Z,5.93
2022-12-14T23:31:16.067Z,10.43
2022-12-14T23:33:36.318Z,9.43
2022-12-14T23:35:56.140Z,9.00
2022-12-14T23:38:22.526Z,8.05
2022-12-14T23:40:42.850Z,11.48
2022-12-14T23:43:03.078Z,7.60
2022-12-14T23:45:24.454Z,15.40
2022-12-14T23:47:45.108Z,7.97
2022-12-14T23:50:09.586Z,11.30
2022-12-14T23:52:30.133Z,8.95
2022-12-14T23:54:50.715Z,11.23
2022-12-14T23:57:11.238Z,7.72
2022-12-14T23:59:33.635Z,12.65
